sensor_id;sensor_type;location;lat;lon;timestamp;P1;durP1;ratioP1;P2;durP2;ratioP2
78889;SDS011;68279;48.964;14.502;2024-02-14T00:00:18;6.78;;;3.72;;
78889;SDS011;68279;48.964;14.502;2024-02-14T00:02:44;4.13;;;3.47;;
78889;SDS011;68279;48.964;14.502;2024-02-14T00:05:10;3.75;;;2.75;;
78889;SDS011;68279;48.964;14.502;2024-02-14T00:07:37;2.70;;;2.47;;
78889;SDS011;68279;48.964;14.502;2024-02-14T00:10:03;8.10;;;2.28;;
78889;SDS011;68279;48.964;14.502;2024-02-14T00:12:31;2.65;;;1.92;;
78889;SDS011;68279;48.964;14.502;2024-02-14T00:15:03;4.10;;;3.30;;
78889;SDS011;68279;48.964;14.502;2024-02-14T00:17:31;2.85;;;1.90;;
78889;SDS011;68279;48.964;14.502;2024-02-14T00:19:57;5.05;;;3.97;;
78889;SDS011;68279;48.964;14.502;2024-02-14T00:22:23;4.68;;;3.28;;
78889;SDS011;68279;48.964;14.502;2024-02-14T00:24:49;4.90;;;3.60;;
78889;SDS011;68279;48.964;14.502;2024-02-14T00:27:15;2.42;;;1.95;;
78889;SDS011;68279;48.964;14.502;2024-02-14T00:29:41;3.08;;;1.88;;
78889;SDS011;68279;48.964;14.502;2024-02-14T00:32:09;5.88;;;2.90;;
78889;SDS011;68279;48.964;14.502;2024-02-14T00:34:34;4.57;;;3.72;;
78889;SDS011;68279;48.964;14.502;2024-02-14T00:37:00;3.25;;;2.92;;
78889;SDS011;68279;48.964;14.502;2024-02-14T00:39:25;3.80;;;2.00;;
78889;SDS011;68279;48.964;14.502;2024-02-14T00:41:51;3.00;;;1.90;;
78889;SDS011;68279;48.964;14.502;2024-02-14T00:44:18;4.55;;;2.38;;
78889;SDS011;68279;48.964;14.502;2024-02-14T00:46:44;3.45;;;3.17;;
78889;SDS011;68279;48.964;14.502;2024-02-14T00:49:10;2.83;;;2.13;;
78889;SDS011;68279;48.964;14.502;2024-02-14T00:51:36;3.33;;;3.03;;
78889;SDS011;68279;48.964;14.502;2024-02-14T00:54:05;3.42;;;2.75;;
78889;SDS011;68279;48.964;14.502;2024-02-14T00:56:31;3.88;;;2.75;;
78889;SDS011;68279;48.964;14.502;2024-02-14T00:58:57;9.07;;;4.90;;
78889;SDS011;68279;48.964;14.502;2024-02-14T01:01:23;3.65;;;1.75;;
78889;SDS011;68279;48.964;14.502;2024-02-14T01:03:48;2.40;;;1.95;;
78889;SDS011;68279;48.964;14.502;2024-02-14T01:06:17;1.63;;;1.52;;
78889;SDS011;68279;48.964;14.502;2024-02-14T01:08:43;2.17;;;2.05;;
78889;SDS011;68279;48.964;14.502;2024-02-14T01:11:09;5.25;;;2.10;;
78889;SDS011;68279;48.964;14.502;2024-02-14T01:13:35;2.17;;;1.70;;
78889;SDS011;68279;48.964;14.502;2024-02-14T01:16:02;4.75;;;2.75;;
78889;SDS011;68279;48.964;14.502;2024-02-14T01:18:28;3.78;;;2.95;;
78889;SDS011;68279;48.964;14.502;2024-02-14T01:20:54;2.28;;;2.08;;
78889;SDS011;68279;48.964;14.502;2024-02-14T01:23:19;3.35;;;1.95;;
78889;SDS011;68279;48.964;14.502;2024-02-14T01:25:45;2.92;;;2.65;;
78889;SDS011;68279;48.964;14.502;2024-02-14T01:28:11;10.90;;;3.20;;
78889;SDS011;68279;48.964;14.502;2024-02-14T01:30:36;4.30;;;2.80;;
78889;SDS011;68279;48.964;14.502;2024-02-14T01:33:02;2.20;;;2.05;;
78889;SDS011;68279;48.964;14.502;2024-02-14T01:35:30;2.25;;;0.90;;
78889;SDS011;68279;48.964;14.502;2024-02-14T01:37:56;2.72;;;2.13;;
78889;SDS011;68279;48.964;14.502;2024-02-14T01:40:22;1.90;;;1.50;;
78889;SDS011;68279;48.964;14.502;2024-02-14T01:42:48;3.58;;;1.75;;
78889;SDS011;68279;48.964;14.502;2024-02-14T01:45:14;2.72;;;1.65;;
78889;SDS011;68279;48.964;14.502;2024-02-14T01:47:39;3.70;;;2.13;;
78889;SDS011;68279;48.964;14.502;2024-02-14T01:50:06;2.35;;;1.75;;
78889;SDS011;68279;48.964;14.502;2024-02-14T01:52:36;4.15;;;2.88;;
78889;SDS011;68279;48.964;14.502;2024-02-14T01:55:04;1.90;;;1.55;;
78889;SDS011;68279;48.964;14.502;2024-02-14T01:57:30;2.92;;;2.40;;
78889;SDS011;68279;48.964;14.502;2024-02-14T01:59:56;2.80;;;2.28;;
78889;SDS011;68279;48.964;14.502;2024-02-14T02:02:23;4.18;;;2.42;;
78889;SDS011;68279;48.964;14.502;2024-02-14T02:04:52;1.70;;;1.58;;
78889;SDS011;68279;48.964;14.502;2024-02-14T02:07:17;2.40;;;2.22;;
78889;SDS011;68279;48.964;14.502;2024-02-14T02:09:45;2.47;;;1.63;;
78889;SDS011;68279;48.964;14.502;2024-02-14T02:12:13;2.05;;;1.83;;
78889;SDS011;68279;48.964;14.502;2024-02-14T02:14:39;2.13;;;1.65;;
78889;SDS011;68279;48.964;14.502;2024-02-14T02:17:05;2.45;;;2.25;;
78889;SDS011;68279;48.964;14.502;2024-02-14T02:19:33;2.45;;;2.08;;
78889;SDS011;68279;48.964;14.502;2024-02-14T02:21:59;3.85;;;2.22;;
78889;SDS011;68279;48.964;14.502;2024-02-14T02:24:25;1.98;;;1.77;;
78889;SDS011;68279;48.964;14.502;2024-02-14T02:26:50;2.80;;;2.35;;
78889;SDS011;68279;48.964;14.502;2024-02-14T02:29:16;2.03;;;1.65;;
78889;SDS011;68279;48.964;14.502;2024-02-14T02:31:42;3.58;;;2.30;;
78889;SDS011;68279;48.964;14.502;2024-02-14T02:34:07;14.65;;;2.00;;
78889;SDS011;68279;48.964;14.502;2024-02-14T02:36:36;2.15;;;1.90;;
78889;SDS011;68279;48.964;14.502;2024-02-14T02:39:03;3.33;;;2.47;;
78889;SDS011;68279;48.964;14.502;2024-02-14T02:41:30;3.17;;;2.17;;
78889;SDS011;68279;48.964;14.502;2024-02-14T02:43:57;2.08;;;1.50;;
78889;SDS011;68279;48.964;14.502;2024-02-14T02:46:23;2.67;;;2.17;;
78889;SDS011;68279;48.964;14.502;2024-02-14T02:48:48;2.15;;;1.95;;
78889;SDS011;68279;48.964;14.502;2024-02-14T02:51:17;2.30;;;1.73;;
78889;SDS011;68279;48.964;14.502;2024-02-14T02:53:43;2.65;;;1.80;;
78889;SDS011;68279;48.964;14.502;2024-02-14T02:56:09;5.75;;;2.83;;
78889;SDS011;68279;48.964;14.502;2024-02-14T02:58:34;6.25;;;2.45;;
78889;SDS011;68279;48.964;14.502;2024-02-14T03:01:00;3.63;;;1.80;;
78889;SDS011;68279;48.964;14.502;2024-02-14T03:03:26;5.85;;;1.80;;
78889;SDS011;68279;48.964;14.502;2024-02-14T03:05:53;2.13;;;1.83;;
78889;SDS011;68279;48.964;14.502;2024-02-14T03:08:20;2.63;;;2.05;;
78889;SDS011;68279;48.964;14.502;2024-02-14T03:10:46;11.70;;;2.28;;
78889;SDS011;68279;48.964;14.502;2024-02-14T03:13:12;1.75;;;1.48;;
78889;SDS011;68279;48.964;14.502;2024-02-14T03:15:38;2.15;;;1.67;;
78889;SDS011;68279;48.964;14.502;2024-02-14T03:18:03;2.58;;;1.70;;
78889;SDS011;68279;48.964;14.502;2024-02-14T03:20:33;2.88;;;1.30;;
78889;SDS011;68279;48.964;14.502;2024-02-14T03:23:00;2.33;;;1.52;;
78889;SDS011;68279;48.964;14.502;2024-02-14T03:25:25;2.05;;;1.55;;
78889;SDS011;68279;48.964;14.502;2024-02-14T03:27:51;2.58;;;1.63;;
78889;SDS011;68279;48.964;14.502;2024-02-14T03:30:19;1.92;;;1.73;;
78889;SDS011;68279;48.964;14.502;2024-02-14T03:32:49;3.38;;;2.88;;
78889;SDS011;68279;48.964;14.502;2024-02-14T03:35:15;3.22;;;1.75;;
78889;SDS011;68279;48.964;14.502;2024-02-14T03:37:41;10.90;;;2.63;;
78889;SDS011;68279;48.964;14.502;2024-02-14T03:40:09;2.33;;;1.80;;
78889;SDS011;68279;48.964;14.502;2024-02-14T03:42:35;4.78;;;1.90;;
78889;SDS011;68279;48.964;14.502;2024-02-14T03:45:01;1.55;;;1.35;;
78889;SDS011;68279;48.964;14.502;2024-02-14T03:47:33;1.50;;;1.35;;
78889;SDS011;68279;48.964;14.502;2024-02-14T03:49:59;3.22;;;2.13;;
78889;SDS011;68279;48.964;14.502;2024-02-14T03:52:25;3.15;;;2.17;;
78889;SDS011;68279;48.964;14.502;2024-02-14T03:54:51;1.77;;;1.63;;
78889;SDS011;68279;48.964;14.502;2024-02-14T03:57:17;2.90;;;1.23;;
78889;SDS011;68279;48.964;14.502;2024-02-14T03:59:43;2.13;;;1.92;;
78889;SDS011;68279;48.964;14.502;2024-02-14T04:02:09;2.85;;;1.88;;
78889;SDS011;68279;48.964;14.502;2024-02-14T04:04:39;7.25;;;2.83;;
78889;SDS011;68279;48.964;14.502;2024-02-14T04:07:07;2.65;;;2.00;;
78889;SDS011;68279;48.964;14.502;2024-02-14T04:09:36;4.95;;;1.35;;
78889;SDS011;68279;48.964;14.502;2024-02-14T04:12:02;3.03;;;1.95;;
78889;SDS011;68279;48.964;14.502;2024-02-14T04:14:28;3.33;;;2.17;;
78889;SDS011;68279;48.964;14.502;2024-02-14T04:16:54;3.67;;;1.30;;
78889;SDS011;68279;48.964;14.502;2024-02-14T04:19:19;2.40;;;2.05;;
78889;SDS011;68279;48.964;14.502;2024-02-14T04:21:45;2.13;;;1.60;;
78889;SDS011;68279;48.964;14.502;2024-02-14T04:24:11;2.58;;;1.98;;
78889;SDS011;68279;48.964;14.502;2024-02-14T04:26:37;3.00;;;1.15;;
78889;SDS011;68279;48.964;14.502;2024-02-14T04:29:02;2.22;;;1.50;;
78889;SDS011;68279;48.964;14.502;2024-02-14T04:31:28;2.45;;;1.52;;
78889;SDS011;68279;48.964;14.502;2024-02-14T04:33:57;1.65;;;1.23;;
78889;SDS011;68279;48.964;14.502;2024-02-14T04:36:23;3.15;;;2.17;;
78889;SDS011;68279;48.964;14.502;2024-02-14T04:38:50;2.10;;;1.30;;
78889;SDS011;68279;48.964;14.502;2024-02-14T04:41:15;4.45;;;1.73;;
78889;SDS011;68279;48.964;14.502;2024-02-14T04:43:41;4.05;;;1.83;;
78889;SDS011;68279;48.964;14.502;2024-02-14T04:46:07;2.72;;;2.13;;
78889;SDS011;68279;48.964;14.502;2024-02-14T04:48:34;1.58;;;1.17;;
78889;SDS011;68279;48.964;14.502;2024-02-14T04:51:00;4.38;;;1.50;;
78889;SDS011;68279;48.964;14.502;2024-02-14T04:53:26;2.65;;;1.38;;
78889;SDS011;68279;48.964;14.502;2024-02-14T04:55:52;2.38;;;1.52;;
78889;SDS011;68279;48.964;14.502;2024-02-14T04:58:18;1.92;;;1.65;;
78889;SDS011;68279;48.964;14.502;2024-02-14T05:00:44;2.35;;;1.17;;
78889;SDS011;68279;48.964;14.502;2024-02-14T05:03:10;2.50;;;1.27;;
78889;SDS011;68279;48.964;14.502;2024-02-14T05:05:36;4.38;;;1.85;;
78889;SDS011;68279;48.964;14.502;2024-02-14T05:08:01;2.00;;;1.42;;
78889;SDS011;68279;48.964;14.502;2024-02-14T05:10:30;2.33;;;1.63;;
78889;SDS011;68279;48.964;14.502;2024-02-14T05:13:00;2.45;;;1.25;;
78889;SDS011;68279;48.964;14.502;2024-02-14T05:15:26;10.15;;;1.25;;
78889;SDS011;68279;48.964;14.502;2024-02-14T05:17:52;3.08;;;2.05;;
78889;SDS011;68279;48.964;14.502;2024-02-14T05:20:17;2.50;;;1.70;;
78889;SDS011;68279;48.964;14.502;2024-02-14T05:22:43;4.07;;;1.42;;
78889;SDS011;68279;48.964;14.502;2024-02-14T05:25:09;2.00;;;1.27;;
78889;SDS011;68279;48.964;14.502;2024-02-14T05:27:35;3.78;;;2.30;;
78889;SDS011;68279;48.964;14.502;2024-02-14T05:30:02;3.65;;;2.50;;
78889;SDS011;68279;48.964;14.502;2024-02-14T05:32:30;3.22;;;1.67;;
78889;SDS011;68279;48.964;14.502;2024-02-14T05:34:59;3.72;;;1.88;;
78889;SDS011;68279;48.964;14.502;2024-02-14T05:37:24;2.20;;;1.80;;
78889;SDS011;68279;48.964;14.502;2024-02-14T05:39:52;1.98;;;1.48;;
78889;SDS011;68279;48.964;14.502;2024-02-14T05:42:19;2.25;;;1.85;;
78889;SDS011;68279;48.964;14.502;2024-02-14T05:44:45;2.63;;;1.63;;
78889;SDS011;68279;48.964;14.502;2024-02-14T05:47:10;2.97;;;2.03;;
78889;SDS011;68279;48.964;14.502;2024-02-14T05:49:40;2.38;;;1.65;;
78889;SDS011;68279;48.964;14.502;2024-02-14T05:52:06;3.50;;;1.67;;
78889;SDS011;68279;48.964;14.502;2024-02-14T05:54:32;4.38;;;1.75;;
78889;SDS011;68279;48.964;14.502;2024-02-14T05:56:57;2.78;;;1.45;;
78889;SDS011;68279;48.964;14.502;2024-02-14T05:59:23;2.63;;;1.75;;
78889;SDS011;68279;48.964;14.502;2024-02-14T06:01:49;4.80;;;1.60;;
78889;SDS011;68279;48.964;14.502;2024-02-14T06:04:15;2.70;;;1.77;;
78889;SDS011;68279;48.964;14.502;2024-02-14T06:06:40;2.35;;;1.95;;
78889;SDS011;68279;48.964;14.502;2024-02-14T06:09:06;2.78;;;2.28;;
78889;SDS011;68279;48.964;14.502;2024-02-14T06:11:38;3.75;;;2.45;;
78889;SDS011;68279;48.964;14.502;2024-02-14T06:14:07;1.58;;;1.17;;
78889;SDS011;68279;48.964;14.502;2024-02-14T06:16:34;2.10;;;1.58;;
78889;SDS011;68279;48.964;14.502;2024-02-14T06:19:00;4.00;;;2.22;;
78889;SDS011;68279;48.964;14.502;2024-02-14T06:21:26;5.88;;;2.20;;
78889;SDS011;68279;48.964;14.502;2024-02-14T06:23:52;1.40;;;0.93;;
78889;SDS011;68279;48.964;14.502;2024-02-14T06:26:18;2.10;;;1.08;;
78889;SDS011;68279;48.964;14.502;2024-02-14T06:28:44;1.90;;;1.20;;
78889;SDS011;68279;48.964;14.502;2024-02-14T06:31:10;3.55;;;1.85;;
78889;SDS011;68279;48.964;14.502;2024-02-14T06:33:35;3.03;;;1.33;;
78889;SDS011;68279;48.964;14.502;2024-02-14T06:36:02;3.40;;;1.40;;
78889;SDS011;68279;48.964;14.502;2024-02-14T06:38:28;1.98;;;1.35;;
78889;SDS011;68279;48.964;14.502;2024-02-14T06:40:53;3.35;;;2.00;;
78889;SDS011;68279;48.964;14.502;2024-02-14T06:43:19;3.10;;;1.08;;
78889;SDS011;68279;48.964;14.502;2024-02-14T06:45:45;3.50;;;1.60;;
78889;SDS011;68279;48.964;14.502;2024-02-14T06:48:10;3.03;;;1.13;;
78889;SDS011;68279;48.964;14.502;2024-02-14T06:50:36;3.47;;;1.95;;
78889;SDS011;68279;48.964;14.502;2024-02-14T06:53:02;4.35;;;1.52;;
78889;SDS011;68279;48.964;14.502;2024-02-14T06:55:27;3.50;;;1.15;;
78889;SDS011;68279;48.964;14.502;2024-02-14T06:57:54;2.67;;;1.90;;
78889;SDS011;68279;48.964;14.502;2024-02-14T07:00:19;2.83;;;1.63;;
78889;SDS011;68279;48.964;14.502;2024-02-14T07:02:45;2.00;;;1.00;;
78889;SDS011;68279;48.964;14.502;2024-02-14T07:05:13;1.85;;;1.25;;
78889;SDS011;68279;48.964;14.502;2024-02-14T07:07:40;1.38;;;1.05;;
78889;SDS011;68279;48.964;14.502;2024-02-14T07:10:06;3.22;;;1.80;;
78889;SDS011;68279;48.964;14.502;2024-02-14T07:12:32;2.13;;;1.25;;
78889;SDS011;68279;48.964;14.502;2024-02-14T07:14:58;2.05;;;0.88;;
78889;SDS011;68279;48.964;14.502;2024-02-14T07:17:24;5.07;;;2.33;;
78889;SDS011;68279;48.964;14.502;2024-02-14T07:19:49;3.58;;;1.80;;
78889;SDS011;68279;48.964;14.502;2024-02-14T07:22:18;2.42;;;1.48;;
78889;SDS011;68279;48.964;14.502;2024-02-14T07:24:46;3.90;;;2.03;;
78889;SDS011;68279;48.964;14.502;2024-02-14T07:27:12;1.75;;;1.35;;
78889;SDS011;68279;48.964;14.502;2024-02-14T07:29:39;2.50;;;1.80;;
78889;SDS011;68279;48.964;14.502;2024-02-14T07:32:05;7.05;;;1.45;;
78889;SDS011;68279;48.964;14.502;2024-02-14T07:34:34;3.47;;;1.55;;
78889;SDS011;68279;48.964;14.502;2024-02-14T07:36:59;1.38;;;1.05;;
78889;SDS011;68279;48.964;14.502;2024-02-14T07:39:25;2.92;;;1.90;;
78889;SDS011;68279;48.964;14.502;2024-02-14T07:41:51;4.13;;;1.73;;
78889;SDS011;68279;48.964;14.502;2024-02-14T07:44:17;2.67;;;1.15;;
78889;SDS011;68279;48.964;14.502;2024-02-14T07:46:42;3.88;;;2.70;;
78889;SDS011;68279;48.964;14.502;2024-02-14T07:49:08;3.15;;;1.55;;
78889;SDS011;68279;48.964;14.502;2024-02-14T07:51:35;2.35;;;1.52;;
78889;SDS011;68279;48.964;14.502;2024-02-14T07:54:03;2.15;;;1.20;;
78889;SDS011;68279;48.964;14.502;2024-02-14T07:56:29;3.22;;;1.38;;
78889;SDS011;68279;48.964;14.502;2024-02-14T07:58:55;3.10;;;1.55;;
78889;SDS011;68279;48.964;14.502;2024-02-14T08:01:20;3.08;;;1.38;;
78889;SDS011;68279;48.964;14.502;2024-02-14T08:03:46;2.83;;;1.83;;
78889;SDS011;68279;48.964;14.502;2024-02-14T08:06:12;4.05;;;1.75;;
78889;SDS011;68279;48.964;14.502;2024-02-14T08:08:38;2.22;;;1.48;;
78889;SDS011;68279;48.964;14.502;2024-02-14T08:11:04;2.35;;;1.58;;
78889;SDS011;68279;48.964;14.502;2024-02-14T08:13:30;2.50;;;1.52;;
78889;SDS011;68279;48.964;14.502;2024-02-14T08:15:55;1.80;;;1.15;;
78889;SDS011;68279;48.964;14.502;2024-02-14T08:18:21;2.75;;;1.30;;
78889;SDS011;68279;48.964;14.502;2024-02-14T08:20:48;5.18;;;2.00;;
78889;SDS011;68279;48.964;14.502;2024-02-14T08:23:14;2.22;;;1.00;;
78889;SDS011;68279;48.964;14.502;2024-02-14T08:25:39;1.13;;;0.70;;
78889;SDS011;68279;48.964;14.502;2024-02-14T08:28:06;2.50;;;0.90;;
78889;SDS011;68279;48.964;14.502;2024-02-14T08:30:33;2.58;;;1.42;;
78889;SDS011;68279;48.964;14.502;2024-02-14T08:33:09;1.50;;;0.93;;
78889;SDS011;68279;48.964;14.502;2024-02-14T08:35:36;2.13;;;1.05;;
78889;SDS011;68279;48.964;14.502;2024-02-14T08:38:04;5.88;;;1.23;;
78889;SDS011;68279;48.964;14.502;2024-02-14T08:40:30;3.03;;;0.82;;
78889;SDS011;68279;48.964;14.502;2024-02-14T08:42:55;1.90;;;0.90;;
78889;SDS011;68279;48.964;14.502;2024-02-14T08:45:21;2.92;;;1.45;;
78889;SDS011;68279;48.964;14.502;2024-02-14T08:47:48;2.30;;;1.25;;
78889;SDS011;68279;48.964;14.502;2024-02-14T08:50:13;2.60;;;1.30;;
78889;SDS011;68279;48.964;14.502;2024-02-14T08:52:39;1.67;;;0.88;;
78889;SDS011;68279;48.964;14.502;2024-02-14T08:55:05;2.60;;;1.20;;
78889;SDS011;68279;48.964;14.502;2024-02-14T08:57:34;2.70;;;1.10;;
78889;SDS011;68279;48.964;14.502;2024-02-14T09:00:00;4.57;;;1.52;;
78889;SDS011;68279;48.964;14.502;2024-02-14T09:02:27;2.53;;;1.20;;
78889;SDS011;68279;48.964;14.502;2024-02-14T09:04:58;3.33;;;1.63;;
78889;SDS011;68279;48.964;14.502;2024-02-14T09:07:23;3.05;;;1.65;;
78889;SDS011;68279;48.964;14.502;2024-02-14T09:09:49;2.35;;;1.10;;
78889;SDS011;68279;48.964;14.502;2024-02-14T09:12:14;3.92;;;1.55;;
78889;SDS011;68279;48.964;14.502;2024-02-14T09:14:40;2.63;;;1.23;;
78889;SDS011;68279;48.964;14.502;2024-02-14T09:17:05;2.10;;;1.33;;
78889;SDS011;68279;48.964;14.502;2024-02-14T09:19:31;3.08;;;1.42;;
78889;SDS011;68279;48.964;14.502;2024-02-14T09:21:57;2.45;;;1.08;;
78889;SDS011;68279;48.964;14.502;2024-02-14T09:24:22;3.22;;;1.23;;
78889;SDS011;68279;48.964;14.502;2024-02-14T09:26:48;4.82;;;1.20;;
78889;SDS011;68279;48.964;14.502;2024-02-14T09:29:13;3.53;;;1.23;;
78889;SDS011;68279;48.964;14.502;2024-02-14T09:31:40;3.20;;;0.80;;
78889;SDS011;68279;48.964;14.502;2024-02-14T09:34:06;2.50;;;1.35;;
78889;SDS011;68279;48.964;14.502;2024-02-14T09:36:31;3.28;;;1.27;;
78889;SDS011;68279;48.964;14.502;2024-02-14T09:38:57;2.20;;;1.13;;
78889;SDS011;68279;48.964;14.502;2024-02-14T09:41:25;2.90;;;1.35;;
78889;SDS011;68279;48.964;14.502;2024-02-14T09:46:23;5.55;;;1.20;;
78889;SDS011;68279;48.964;14.502;2024-02-14T09:48:50;2.35;;;1.15;;
78889;SDS011;68279;48.964;14.502;2024-02-14T09:51:17;2.42;;;1.25;;
78889;SDS011;68279;48.964;14.502;2024-02-14T09:53:43;3.78;;;1.10;;
78889;SDS011;68279;48.964;14.502;2024-02-14T09:56:10;3.38;;;0.90;;
78889;SDS011;68279;48.964;14.502;2024-02-14T09:58:36;2.55;;;1.40;;
78889;SDS011;68279;48.964;14.502;2024-02-14T10:01:03;2.45;;;1.25;;
78889;SDS011;68279;48.964;14.502;2024-02-14T10:03:30;2.67;;;1.10;;
78889;SDS011;68279;48.964;14.502;2024-02-14T10:05:55;2.25;;;1.25;;
78889;SDS011;68279;48.964;14.502;2024-02-14T10:08:22;2.55;;;1.55;;
78889;SDS011;68279;48.964;14.502;2024-02-14T10:10:48;2.22;;;1.05;;
78889;SDS011;68279;48.964;14.502;2024-02-14T10:13:15;3.38;;;1.52;;
78889;SDS011;68279;48.964;14.502;2024-02-14T10:15:41;2.95;;;1.73;;
78889;SDS011;68279;48.964;14.502;2024-02-14T10:18:06;1.95;;;1.15;;
78889;SDS011;68279;48.964;14.502;2024-02-14T10:20:35;2.20;;;1.13;;
78889;SDS011;68279;48.964;14.502;2024-02-14T10:23:07;3.13;;;2.15;;
78889;SDS011;68279;48.964;14.502;2024-02-14T10:25:36;2.60;;;1.23;;
78889;SDS011;68279;48.964;14.502;2024-02-14T10:28:06;5.63;;;1.48;;
78889;SDS011;68279;48.964;14.502;2024-02-14T10:30:34;4.95;;;1.77;;
78889;SDS011;68279;48.964;14.502;2024-02-14T10:33:02;4.20;;;1.58;;
78889;SDS011;68279;48.964;14.502;2024-02-14T10:35:29;2.97;;;1.27;;
78889;SDS011;68279;48.964;14.502;2024-02-14T10:37:58;2.20;;;0.93;;
78889;SDS011;68279;48.964;14.502;2024-02-14T10:40:29;2.35;;;1.27;;
78889;SDS011;68279;48.964;14.502;2024-02-14T10:42:57;2.65;;;0.98;;
78889;SDS011;68279;48.964;14.502;2024-02-14T10:45:24;2.53;;;0.95;;
78889;SDS011;68279;48.964;14.502;2024-02-14T10:47:51;2.20;;;0.88;;
78889;SDS011;68279;48.964;14.502;2024-02-14T10:50:19;1.83;;;0.98;;
78889;SDS011;68279;48.964;14.502;2024-02-14T10:52:46;2.10;;;1.30;;
78889;SDS011;68279;48.964;14.502;2024-02-14T10:55:14;2.28;;;0.73;;
78889;SDS011;68279;48.964;14.502;2024-02-14T10:57:42;3.33;;;1.25;;
78889;SDS011;68279;48.964;14.502;2024-02-14T11:00:09;1.83;;;1.02;;
78889;SDS011;68279;48.964;14.502;2024-02-14T11:02:39;2.17;;;0.85;;
78889;SDS011;68279;48.964;14.502;2024-02-14T11:05:05;2.28;;;1.02;;
78889;SDS011;68279;48.964;14.502;2024-02-14T11:07:32;2.08;;;1.13;;
78889;SDS011;68279;48.964;14.502;2024-02-14T11:10:07;2.22;;;1.05;;
78889;SDS011;68279;48.964;14.502;2024-02-14T11:12:36;1.80;;;1.15;;
78889;SDS011;68279;48.964;14.502;2024-02-14T11:15:17;2.80;;;1.30;;
78889;SDS011;68279;48.964;14.502;2024-02-14T11:17:47;2.10;;;1.15;;
78889;SDS011;68279;48.964;14.502;2024-02-14T11:20:50;2.15;;;0.95;;
78889;SDS011;68279;48.964;14.502;2024-02-14T11:23:11;2.08;;;1.50;;
78889;SDS011;68279;48.964;14.502;2024-02-14T11:25:37;1.85;;;1.02;;
78889;SDS011;68279;48.964;14.502;2024-02-14T11:28:13;1.98;;;1.20;;
78889;SDS011;68279;48.964;14.502;2024-02-14T11:30:44;1.98;;;0.90;;
78889;SDS011;68279;48.964;14.502;2024-02-14T11:35:42;2.70;;;1.25;;
78889;SDS011;68279;48.964;14.502;2024-02-14T11:38:08;3.30;;;1.52;;
78889;SDS011;68279;48.964;14.502;2024-02-14T11:40:38;4.03;;;1.20;;
78889;SDS011;68279;48.964;14.502;2024-02-14T11:43:04;2.17;;;0.93;;
78889;SDS011;68279;48.964;14.502;2024-02-14T11:45:35;2.15;;;1.50;;
78889;SDS011;68279;48.964;14.502;2024-02-14T11:48:04;2.67;;;1.35;;
78889;SDS011;68279;48.964;14.502;2024-02-14T11:50:30;3.17;;;1.00;;
78889;SDS011;68279;48.964;14.502;2024-02-14T11:52:56;1.90;;;0.90;;
78889;SDS011;68279;48.964;14.502;2024-02-14T11:55:27;1.95;;;1.02;;
78889;SDS011;68279;48.964;14.502;2024-02-14T11:57:54;1.75;;;1.30;;
78889;SDS011;68279;48.964;14.502;2024-02-14T12:00:19;2.78;;;0.98;;
78889;SDS011;68279;48.964;14.502;2024-02-14T12:02:45;2.05;;;1.42;;
78889;SDS011;68279;48.964;14.502;2024-02-14T12:05:11;2.50;;;1.02;;
78889;SDS011;68279;48.964;14.502;2024-02-14T12:07:39;1.83;;;0.82;;
78889;SDS011;68279;48.964;14.502;2024-02-14T12:10:04;1.83;;;0.98;;
78889;SDS011;68279;48.964;14.502;2024-02-14T12:12:31;1.88;;;0.90;;
78889;SDS011;68279;48.964;14.502;2024-02-14T12:14:57;1.58;;;0.95;;
78889;SDS011;68279;48.964;14.502;2024-02-14T12:17:24;1.13;;;0.77;;
78889;SDS011;68279;48.964;14.502;2024-02-14T12:19:49;2.55;;;1.17;;
78889;SDS011;68279;48.964;14.502;2024-02-14T12:22:17;2.88;;;0.90;;
78889;SDS011;68279;48.964;14.502;2024-02-14T12:24:45;1.80;;;0.82;;
78889;SDS011;68279;48.964;14.502;2024-02-14T12:27:17;1.23;;;0.80;;
78889;SDS011;68279;48.964;14.502;2024-02-14T12:29:45;2.30;;;0.77;;
78889;SDS011;68279;48.964;14.502;2024-02-14T12:32:11;2.65;;;0.93;;
78889;SDS011;68279;48.964;14.502;2024-02-14T12:34:37;1.25;;;0.63;;
78889;SDS011;68279;48.964;14.502;2024-02-14T12:37:03;1.75;;;0.82;;
78889;SDS011;68279;48.964;14.502;2024-02-14T12:39:29;2.10;;;0.93;;
78889;SDS011;68279;48.964;14.502;2024-02-14T12:41:55;1.48;;;0.90;;
78889;SDS011;68279;48.964;14.502;2024-02-14T12:44:20;2.83;;;1.02;;
78889;SDS011;68279;48.964;14.502;2024-02-14T12:46:46;4.43;;;1.10;;
78889;SDS011;68279;48.964;14.502;2024-02-14T12:49:12;2.50;;;0.95;;
78889;SDS011;68279;48.964;14.502;2024-02-14T12:51:37;1.27;;;0.75;;
78889;SDS011;68279;48.964;14.502;2024-02-14T12:54:04;1.67;;;0.77;;
78889;SDS011;68279;48.964;14.502;2024-02-14T12:56:30;3.30;;;1.00;;
78889;SDS011;68279;48.964;14.502;2024-02-14T12:58:56;3.00;;;1.05;;
78889;SDS011;68279;48.964;14.502;2024-02-14T13:01:23;2.97;;;1.33;;
78889;SDS011;68279;48.964;14.502;2024-02-14T13:03:48;2.90;;;0.93;;
78889;SDS011;68279;48.964;14.502;2024-02-14T13:06:14;2.13;;;0.75;;
78889;SDS011;68279;48.964;14.502;2024-02-14T13:08:39;3.15;;;1.15;;
78889;SDS011;68279;48.964;14.502;2024-02-14T13:11:05;1.65;;;1.00;;
78889;SDS011;68279;48.964;14.502;2024-02-14T13:13:34;2.17;;;1.20;;
78889;SDS011;68279;48.964;14.502;2024-02-14T13:16:00;2.28;;;1.08;;
78889;SDS011;68279;48.964;14.502;2024-02-14T13:18:25;1.83;;;1.00;;
78889;SDS011;68279;48.964;14.502;2024-02-14T13:20:51;2.55;;;1.13;;
78889;SDS011;68279;48.964;14.502;2024-02-14T13:23:27;3.03;;;0.93;;
78889;SDS011;68279;48.964;14.502;2024-02-14T13:25:53;2.47;;;1.23;;
78889;SDS011;68279;48.964;14.502;2024-02-14T13:28:19;4.47;;;1.00;;
78889;SDS011;68279;48.964;14.502;2024-02-14T13:30:45;2.72;;;1.50;;
78889;SDS011;68279;48.964;14.502;2024-02-14T13:33:13;2.08;;;1.15;;
78889;SDS011;68279;48.964;14.502;2024-02-14T13:35:39;2.45;;;1.08;;
78889;SDS011;68279;48.964;14.502;2024-02-14T13:38:07;4.57;;;1.33;;
78889;SDS011;68279;48.964;14.502;2024-02-14T13:40:35;3.80;;;1.13;;
78889;SDS011;68279;48.964;14.502;2024-02-14T13:43:00;2.63;;;1.00;;
78889;SDS011;68279;48.964;14.502;2024-02-14T13:45:26;2.55;;;1.10;;
78889;SDS011;68279;48.964;14.502;2024-02-14T13:48:02;3.47;;;1.02;;
78889;SDS011;68279;48.964;14.502;2024-02-14T13:50:32;1.85;;;0.95;;
78889;SDS011;68279;48.964;14.502;2024-02-14T13:52:58;1.23;;;0.68;;
78889;SDS011;68279;48.964;14.502;2024-02-14T13:55:24;2.47;;;1.00;;
78889;SDS011;68279;48.964;14.502;2024-02-14T13:57:50;2.00;;;0.90;;
78889;SDS011;68279;48.964;14.502;2024-02-14T14:00:16;1.35;;;0.70;;
78889;SDS011;68279;48.964;14.502;2024-02-14T14:02:42;2.42;;;1.20;;
78889;SDS011;68279;48.964;14.502;2024-02-14T14:05:08;5.93;;;1.25;;
78889;SDS011;68279;48.964;14.502;2024-02-14T14:07:39;3.28;;;0.68;;
78889;SDS011;68279;48.964;14.502;2024-02-14T14:10:06;3.35;;;1.45;;
78889;SDS011;68279;48.964;14.502;2024-02-14T14:12:33;4.20;;;1.45;;
78889;SDS011;68279;48.964;14.502;2024-02-14T14:14:58;2.42;;;1.00;;
78889;SDS011;68279;48.964;14.502;2024-02-14T14:17:24;3.22;;;1.50;;
78889;SDS011;68279;48.964;14.502;2024-02-14T14:19:51;2.55;;;1.02;;
78889;SDS011;68279;48.964;14.502;2024-02-14T14:22:17;3.00;;;1.08;;
78889;SDS011;68279;48.964;14.502;2024-02-14T14:24:42;3.28;;;0.93;;
78889;SDS011;68279;48.964;14.502;2024-02-14T14:27:08;2.35;;;0.98;;
78889;SDS011;68279;48.964;14.502;2024-02-14T14:29:38;2.95;;;0.95;;
78889;SDS011;68279;48.964;14.502;2024-02-14T14:32:07;1.35;;;0.70;;
78889;SDS011;68279;48.964;14.502;2024-02-14T14:34:33;1.92;;;1.20;;